M\v Shaya — C6SL9 — position and weather

sailwx.info

Track history (hours):
 
Tides and Currents Weather Stations Pressure Air Temp Water Temp Dewpoint Dewpoint Depression Visibility Wind Speed Wind Dir Waves Ship Positions

M\v Shaya

Last reported at 2014-Aug-13 11:05 UTC. Time now 2014-Nov-23 04:52 UTC.
Position N 36°46' E 003°04'.
Warning: this ship's position is months out of date.

Length 100 m; draft 8.5 m.

Type: Cargo ship. MMSI: 311388000.

Date/timePositionNaut miles runAvg speedWind from/ knotsBaromVisibWave heightAir tempDewpointWater temp
2014-Aug-13 11:05N 36°46' E 003°04'0 0.0
2014-Aug-13 09:11N 36°46' E 003°04'0 0.0
2014-Aug-13 08:29N 36°46' E 003°04'120 4.5
2014-Aug-12 05:29N 36°26' E 000°36'1613.4
2014-Aug-12 04:16N 36°19' E 000°18'913.0
2014-Aug-12 03:32N 36°15' E 000°07'1312.7
2014-Aug-12 02:32N 36°09' W 000°07'19 9.3
2014-Aug-12 00:30N 35°59' W 000°27'1311.6
2014-Aug-11 23:22N 35°48' W 000°35'6 6.8
2014-Aug-11 22:31N 35°43' W 000°38'0 0.0
2014-Aug-11 21:20N 35°43' W 000°38'0 0.0
2014-Aug-11 20:27N 35°43' W 000°38'0 0.0
2014-Aug-11 19:30N 35°43' W 000°38'0 0.0
2014-Aug-11 18:06N 35°43' W 000°38'0 0.0
2014-Aug-11 17:32N 35°43' W 000°38'0 0.0
2014-Aug-11 16:24N 35°43' W 000°38'0 0.0
2014-Aug-11 15:27N 35°43' W 000°38'0 0.0
2014-Aug-11 14:33N 35°43' W 000°38'0 0.0
2014-Aug-11 09:30N 35°43' W 000°38'0 0.0
2014-Aug-11 06:11N 35°43' W 000°38'0 0.0
2014-Aug-11 05:33N 35°43' W 000°38'0 0.0
2014-Aug-11 04:27N 35°43' W 000°38'0 0.0
2014-Aug-11 03:15N 35°43' W 000°38'0 0.0
2014-Aug-11 02:24N 35°43' W 000°38'0 0.0
2014-Aug-11 01:27N 35°43' W 000°38'0 0.0
2014-Aug-11 00:12N 35°43' W 000°38'0 0.0
2014-Aug-10 23:18N 35°43' W 000°38'0 0.0
2014-Aug-10 22:15N 35°43' W 000°38'0 0.0
2014-Aug-10 20:31N 35°43' W 000°38'0 0.0
2014-Aug-10 19:33N 35°43' W 000°38'0 0.0
2014-Aug-10 18:33N 35°43' W 000°38'0 0.0
2014-Aug-10 17:33N 35°43' W 000°38'0 0.1
2014-Aug-10 16:33N 35°43' W 000°38'0 0.0
2014-Aug-10 15:27N 35°43' W 000°38'0 0.0
2014-Aug-10 14:31N 35°43' W 000°38'0 0.0
2014-Aug-10 13:27N 35°43' W 000°38'0 0.0
2014-Aug-10 12:21N 35°43' W 000°38'0 0.0
2014-Aug-10 11:33N 35°43' W 000°38'0 0.0
2014-Aug-10 10:18N 35°43' W 000°38'0 0.0
2014-Aug-10 04:29N 35°43' W 000°38'0 0.0
2014-Aug-09 18:09N 35°43' W 000°38'1 1.7
2014-Aug-09 17:19N 35°44' W 000°37'1 1.0
2014-Aug-09 16:17N 35°45' W 000°37'0 0.0
2014-Aug-09 15:09N 35°45' W 000°37'0 0.0
2014-Aug-09 14:23N 35°45' W 000°37'0 0.0
2014-Aug-09 13:22N 35°45' W 000°37'0 0.0
2014-Aug-09 11:33N 35°45' W 000°37'0 0.0
2014-Aug-09 10:26N 35°45' W 000°37'0 0.0
2014-Aug-09 09:29N 35°45' W 000°37'0 0.0
2014-Aug-09 08:08N 35°45' W 000°37'0 0.0
2014-Aug-09 07:31N 35°45' W 000°37'0 0.0
2014-Aug-09 06:32N 35°45' W 000°37'0 0.0
2014-Aug-09 05:23N 35°45' W 000°37'0 0.0
2014-Aug-09 04:20N 35°45' W 000°37'0 0.0
2014-Aug-09 03:29N 35°45' W 000°37'0 0.0
2014-Aug-09 02:29N 35°45' W 000°37'0 0.0
2014-Aug-09 01:11N 35°45' W 000°37'0 0.0
2014-Aug-09 00:32N 35°45' W 000°37'0 0.0
2014-Aug-08 23:32N 35°45' W 000°37'0 0.0
2014-Aug-08 19:33N 35°45' W 000°37'0 0.0
2014-Aug-08 18:29N 35°45' W 000°37'0 0.0
2014-Aug-08 13:33N 35°45' W 000°37'10 9.3
2014-Aug-08 12:31N 35°54' W 000°35'1111.3
2014-Aug-08 11:33N 36°03' W 000°26'1310.7
2014-Aug-08 10:21N 36°08' W 000°12'1111.5
2014-Aug-08 09:23N 36°13' E 000°01'1311.7
2014-Aug-08 08:14N 36°19' E 000°16'710.9
2014-Aug-08 07:33N 36°22' E 000°24'1110.7
2014-Aug-08 06:33N 36°26' E 000°36'1110.5
2014-Aug-08 05:32N 36°31' E 000°48'1010.3
2014-Aug-08 04:32N 36°35' E 001°00'1010.3
2014-Aug-08 03:31N 36°38' E 001°12'1010.4
2014-Aug-08 02:32N 36°42' E 001°24'1110.9
2014-Aug-08 01:32N 36°46' E 001°37'1111.3
2014-Aug-08 00:33N 36°50' E 001°50'1111.5
2014-Aug-07 23:33N 36°54' E 002°03'1110.9
2014-Aug-07 22:32N 36°57' E 002°16'1311.0
2014-Aug-07 21:21N 37°01' E 002°32'911.4
2014-Aug-07 20:33N 37°05' E 002°42'1211.8
2014-Aug-07 19:34N 37°08' E 002°56'1111.4
2014-Aug-07 18:33N 37°12' E 003°10'1310.5
2014-Aug-07 17:18N 37°17' E 003°25'1312.1
2014-Aug-07 16:14N 37°21' E 003°41'1013.2
2014-Aug-07 15:30N 37°24' E 003°52'42810.2
2014-Aug-05 21:34N 43°00' E 009°39'1312.7
2014-Aug-05 20:33N 43°13' E 009°39'1212.3
2014-Aug-05 19:33N 43°25' E 009°41'1111.2
2014-Aug-05 18:33N 43°36' E 009°45'12 5.9
2014-Aug-05 16:33N 43°48' E 009°49'1111.1
2014-Aug-05 15:33N 43°58' E 009°53'8 8.1
2014-Aug-05 14:31N 44°06' E 009°50'0 0.0
2014-Aug-05 13:31N 44°06' E 009°50'0 0.0
2014-Aug-05 12:28N 44°06' E 009°50'0 0.0
2014-Aug-05 11:31N 44°06' E 009°50'0 0.0
2014-Aug-05 10:31N 44°06' E 009°50'0 0.0
2014-Aug-05 09:31N 44°06' E 009°50'0 0.0
2014-Aug-05 08:31N 44°06' E 009°50'0 0.0
2014-Aug-05 07:31N 44°06' E 009°50'0 0.0
2014-Aug-05 06:31N 44°06' E 009°50'0 0.0
2014-Aug-05 05:31N 44°06' E 009°50'0 0.0
2014-Aug-05 04:28N 44°06' E 009°50'0 0.0
2014-Aug-05 03:31N 44°06' E 009°50'0 0.0
2014-Aug-05 02:31N 44°06' E 009°50'0 0.0
2014-Aug-05 01:31N 44°06' E 009°50'0 0.0
2014-Aug-05 00:31N 44°06' E 009°50'0 0.0
2014-Aug-04 23:31N 44°06' E 009°50'0 0.0
2014-Aug-04 22:31N 44°06' E 009°50'0 0.0
2014-Aug-04 21:31N 44°06' E 009°50'0 0.0
2014-Aug-04 20:28N 44°06' E 009°50'0 0.0
2014-Aug-04 19:31N 44°06' E 009°50'0 0.0
2014-Aug-04 18:31N 44°06' E 009°50'0 0.0
2014-Aug-04 17:31N 44°06' E 009°50'0 0.0
2014-Aug-04 16:31N 44°06' E 009°50'0 0.0
2014-Aug-04 15:31N 44°06' E 009°50'0 0.0
2014-Aug-04 14:28N 44°06' E 009°50'0 0.0
2014-Aug-04 13:31N 44°06' E 009°50'0 0.0
2014-Aug-04 12:31N 44°06' E 009°50'0 0.0
2014-Aug-04 11:31N 44°06' E 009°50'0 0.0
2014-Aug-04 10:31N 44°06' E 009°50'0 0.0
2014-Aug-04 09:32N 44°06' E 009°50'0 0.0
2014-Aug-04 08:32N 44°06' E 009°50'0 0.0
2014-Aug-04 07:32N 44°06' E 009°50'0 0.0
2014-Aug-04 06:32N 44°06' E 009°50'0 0.0
2014-Aug-04 05:32N 44°06' E 009°50'0 0.0
2014-Aug-04 04:32N 44°06' E 009°50'0 0.0
2014-Aug-04 03:32N 44°06' E 009°50'0 0.0
2014-Aug-04 02:32N 44°06' E 009°50'0 0.0
2014-Aug-04 01:32N 44°06' E 009°50'0 0.0
2014-Aug-04 00:29N 44°06' E 009°50'0 0.0
2014-Aug-03 23:32N 44°06' E 009°50'0 0.0
2014-Aug-03 22:32N 44°06' E 009°50'0 0.0
2014-Aug-03 21:32N 44°06' E 009°50'0 0.0
2014-Aug-03 20:32N 44°06' E 009°50'0 0.0
2014-Aug-03 19:32N 44°06' E 009°50'0 0.0
2014-Aug-03 18:32N 44°06' E 009°50'0 0.0
2014-Aug-03 17:32N 44°06' E 009°50'0 0.0
2014-Aug-03 11:32N 44°06' E 009°50'  
Track history (hours):
 
Tides and Currents Weather Stations Pressure Air Temp Water Temp Dewpoint Dewpoint Depression Visibility Wind Speed Wind Dir Waves Ship Positions

M\v Shaya

Last reported at 2014-Aug-13 11:05 UTC. Time now 2014-Nov-23 04:52 UTC.
Position N 36°46' E 003°04'.
Warning: this ship's position is months out of date.

Length 100 m; draft 8.5 m.

Type: Cargo ship. MMSI: 311388000.

Date/timePositionNaut miles runAvg speedWind from/ knotsBaromVisibWave heightAir tempDewpointWater temp
2014-Aug-13 11:05N 36°46' E 003°04'0 0.0
2014-Aug-13 09:11N 36°46' E 003°04'0 0.0
2014-Aug-13 08:29N 36°46' E 003°04'120 4.5
2014-Aug-12 05:29N 36°26' E 000°36'1613.4
2014-Aug-12 04:16N 36°19' E 000°18'913.0
2014-Aug-12 03:32N 36°15' E 000°07'1312.7
2014-Aug-12 02:32N 36°09' W 000°07'19 9.3
2014-Aug-12 00:30N 35°59' W 000°27'1311.6
2014-Aug-11 23:22N 35°48' W 000°35'6 6.8
2014-Aug-11 22:31N 35°43' W 000°38'0 0.0
2014-Aug-11 21:20N 35°43' W 000°38'0 0.0
2014-Aug-11 20:27N 35°43' W 000°38'0 0.0
2014-Aug-11 19:30N 35°43' W 000°38'0 0.0
2014-Aug-11 18:06N 35°43' W 000°38'0 0.0
2014-Aug-11 17:32N 35°43' W 000°38'0 0.0
2014-Aug-11 16:24N 35°43' W 000°38'0 0.0
2014-Aug-11 15:27N 35°43' W 000°38'0 0.0
2014-Aug-11 14:33N 35°43' W 000°38'0 0.0
2014-Aug-11 09:30N 35°43' W 000°38'0 0.0
2014-Aug-11 06:11N 35°43' W 000°38'0 0.0
2014-Aug-11 05:33N 35°43' W 000°38'0 0.0
2014-Aug-11 04:27N 35°43' W 000°38'0 0.0
2014-Aug-11 03:15N 35°43' W 000°38'0 0.0
2014-Aug-11 02:24N 35°43' W 000°38'0 0.0
2014-Aug-11 01:27N 35°43' W 000°38'0 0.0
2014-Aug-11 00:12N 35°43' W 000°38'0 0.0
2014-Aug-10 23:18N 35°43' W 000°38'0 0.0
2014-Aug-10 22:15N 35°43' W 000°38'0 0.0
2014-Aug-10 20:31N 35°43' W 000°38'0 0.0
2014-Aug-10 19:33N 35°43' W 000°38'0 0.0
2014-Aug-10 18:33N 35°43' W 000°38'0 0.0
2014-Aug-10 17:33N 35°43' W 000°38'0 0.1
2014-Aug-10 16:33N 35°43' W 000°38'0 0.0
2014-Aug-10 15:27N 35°43' W 000°38'0 0.0
2014-Aug-10 14:31N 35°43' W 000°38'0 0.0
2014-Aug-10 13:27N 35°43' W 000°38'0 0.0
2014-Aug-10 12:21N 35°43' W 000°38'0 0.0
2014-Aug-10 11:33N 35°43' W 000°38'0 0.0
2014-Aug-10 10:18N 35°43' W 000°38'0 0.0
2014-Aug-10 04:29N 35°43' W 000°38'0 0.0
2014-Aug-09 18:09N 35°43' W 000°38'1 1.7
2014-Aug-09 17:19N 35°44' W 000°37'1 1.0
2014-Aug-09 16:17N 35°45' W 000°37'0 0.0
2014-Aug-09 15:09N 35°45' W 000°37'0 0.0
2014-Aug-09 14:23N 35°45' W 000°37'0 0.0
2014-Aug-09 13:22N 35°45' W 000°37'0 0.0
2014-Aug-09 11:33N 35°45' W 000°37'0 0.0
2014-Aug-09 10:26N 35°45' W 000°37'0 0.0
2014-Aug-09 09:29N 35°45' W 000°37'0 0.0
2014-Aug-09 08:08N 35°45' W 000°37'0 0.0
2014-Aug-09 07:31N 35°45' W 000°37'0 0.0
2014-Aug-09 06:32N 35°45' W 000°37'0 0.0
2014-Aug-09 05:23N 35°45' W 000°37'0 0.0
2014-Aug-09 04:20N 35°45' W 000°37'0 0.0
2014-Aug-09 03:29N 35°45' W 000°37'0 0.0
2014-Aug-09 02:29N 35°45' W 000°37'0 0.0
2014-Aug-09 01:11N 35°45' W 000°37'0 0.0
2014-Aug-09 00:32N 35°45' W 000°37'0 0.0
2014-Aug-08 23:32N 35°45' W 000°37'0 0.0
2014-Aug-08 19:33N 35°45' W 000°37'0 0.0
2014-Aug-08 18:29N 35°45' W 000°37'0 0.0
2014-Aug-08 13:33N 35°45' W 000°37'10 9.3
2014-Aug-08 12:31N 35°54' W 000°35'1111.3
2014-Aug-08 11:33N 36°03' W 000°26'1310.7
2014-Aug-08 10:21N 36°08' W 000°12'1111.5
2014-Aug-08 09:23N 36°13' E 000°01'1311.7
2014-Aug-08 08:14N 36°19' E 000°16'710.9
2014-Aug-08 07:33N 36°22' E 000°24'1110.7
2014-Aug-08 06:33N 36°26' E 000°36'1110.5
2014-Aug-08 05:32N 36°31' E 000°48'1010.3
2014-Aug-08 04:32N 36°35' E 001°00'1010.3
2014-Aug-08 03:31N 36°38' E 001°12'1010.4
2014-Aug-08 02:32N 36°42' E 001°24'1110.9
2014-Aug-08 01:32N 36°46' E 001°37'1111.3
2014-Aug-08 00:33N 36°50' E 001°50'1111.5
2014-Aug-07 23:33N 36°54' E 002°03'1110.9
2014-Aug-07 22:32N 36°57' E 002°16'1311.0
2014-Aug-07 21:21N 37°01' E 002°32'911.4
2014-Aug-07 20:33N 37°05' E 002°42'1211.8
2014-Aug-07 19:34N 37°08' E 002°56'1111.4
2014-Aug-07 18:33N 37°12' E 003°10'1310.5
2014-Aug-07 17:18N 37°17' E 003°25'1312.1
2014-Aug-07 16:14N 37°21' E 003°41'1013.2
2014-Aug-07 15:30N 37°24' E 003°52'42810.2
2014-Aug-05 21:34N 43°00' E 009°39'1312.7
2014-Aug-05 20:33N 43°13' E 009°39'1212.3
2014-Aug-05 19:33N 43°25' E 009°41'1111.2
2014-Aug-05 18:33N 43°36' E 009°45'12 5.9
2014-Aug-05 16:33N 43°48' E 009°49'1111.1
2014-Aug-05 15:33N 43°58' E 009°53'8 8.1
2014-Aug-05 14:31N 44°06' E 009°50'0 0.0
2014-Aug-05 13:31N 44°06' E 009°50'0 0.0
2014-Aug-05 12:28N 44°06' E 009°50'0 0.0
2014-Aug-05 11:31N 44°06' E 009°50'0 0.0
2014-Aug-05 10:31N 44°06' E 009°50'0 0.0
2014-Aug-05 09:31N 44°06' E 009°50'0 0.0
2014-Aug-05 08:31N 44°06' E 009°50'0 0.0
2014-Aug-05 07:31N 44°06' E 009°50'0 0.0
2014-Aug-05 06:31N 44°06' E 009°50'0 0.0
2014-Aug-05 05:31N 44°06' E 009°50'0 0.0
2014-Aug-05 04:28N 44°06' E 009°50'0 0.0
2014-Aug-05 03:31N 44°06' E 009°50'0 0.0
2014-Aug-05 02:31N 44°06' E 009°50'0 0.0
2014-Aug-05 01:31N 44°06' E 009°50'0 0.0
2014-Aug-05 00:31N 44°06' E 009°50'0 0.0
2014-Aug-04 23:31N 44°06' E 009°50'0 0.0
2014-Aug-04 22:31N 44°06' E 009°50'0 0.0
2014-Aug-04 21:31N 44°06' E 009°50'0 0.0
2014-Aug-04 20:28N 44°06' E 009°50'0 0.0
2014-Aug-04 19:31N 44°06' E 009°50'0 0.0
2014-Aug-04 18:31N 44°06' E 009°50'0 0.0
2014-Aug-04 17:31N 44°06' E 009°50'0 0.0
2014-Aug-04 16:31N 44°06' E 009°50'0 0.0
2014-Aug-04 15:31N 44°06' E 009°50'0 0.0
2014-Aug-04 14:28N 44°06' E 009°50'0 0.0
2014-Aug-04 13:31N 44°06' E 009°50'0 0.0
2014-Aug-04 12:31N 44°06' E 009°50'0 0.0
2014-Aug-04 11:31N 44°06' E 009°50'0 0.0
2014-Aug-04 10:31N 44°06' E 009°50'0 0.0
2014-Aug-04 09:32N 44°06' E 009°50'0 0.0
2014-Aug-04 08:32N 44°06' E 009°50'0 0.0
2014-Aug-04 07:32N 44°06' E 009°50'0 0.0
2014-Aug-04 06:32N 44°06' E 009°50'0 0.0
2014-Aug-04 05:32N 44°06' E 009°50'0 0.0
2014-Aug-04 04:32N 44°06' E 009°50'0 0.0
2014-Aug-04 03:32N 44°06' E 009°50'0 0.0
2014-Aug-04 02:32N 44°06' E 009°50'0 0.0
2014-Aug-04 01:32N 44°06' E 009°50'0 0.0
2014-Aug-04 00:29N 44°06' E 009°50'0 0.0
2014-Aug-03 23:32N 44°06' E 009°50'0 0.0
2014-Aug-03 22:32N 44°06' E 009°50'0 0.0
2014-Aug-03 21:32N 44°06' E 009°50'0 0.0
2014-Aug-03 20:32N 44°06' E 009°50'0 0.0
2014-Aug-03 19:32N 44°06' E 009°50'0 0.0
2014-Aug-03 18:32N 44°06' E 009°50'0 0.0
2014-Aug-03 17:32N 44°06' E 009°50'0 0.0
2014-Aug-03 11:32N 44°06' E 009°50'  

Dump ship's entire track history